sensor_id;sensor_type;location;lat;lon;timestamp;P1;durP1;ratioP1;P2;durP2;ratioP2
83199;SDS011;73092;49.132;8.920;2024-01-07T00:02:10;20.00;;;9.20;;
83199;SDS011;73092;49.132;8.920;2024-01-07T00:04:35;25.47;;;9.73;;
83199;SDS011;73092;49.132;8.920;2024-01-07T00:07:00;19.55;;;9.88;;
83199;SDS011;73092;49.132;8.920;2024-01-07T00:09:26;19.45;;;10.02;;
83199;SDS011;73092;49.132;8.920;2024-01-07T00:11:52;20.47;;;9.60;;
83199;SDS011;73092;49.132;8.920;2024-01-07T00:14:17;21.50;;;9.80;;
83199;SDS011;73092;49.132;8.920;2024-01-07T00:16:42;23.93;;;11.27;;
83199;SDS011;73092;49.132;8.920;2024-01-07T00:19:08;23.43;;;11.23;;
83199;SDS011;73092;49.132;8.920;2024-01-07T00:21:33;16.65;;;9.25;;
83199;SDS011;73092;49.132;8.920;2024-01-07T00:24:00;18.55;;;9.50;;
83199;SDS011;73092;49.132;8.920;2024-01-07T00:26:25;23.33;;;10.13;;
83199;SDS011;73092;49.132;8.920;2024-01-07T00:28:52;19.45;;;9.27;;
83199;SDS011;73092;49.132;8.920;2024-01-07T00:31:17;20.92;;;10.32;;
83199;SDS011;73092;49.132;8.920;2024-01-07T00:33:43;22.08;;;11.85;;
83199;SDS011;73092;49.132;8.920;2024-01-07T00:36:08;19.93;;;10.07;;
83199;SDS011;73092;49.132;8.920;2024-01-07T00:38:34;26.60;;;11.93;;
83199;SDS011;73092;49.132;8.920;2024-01-07T00:41:05;23.48;;;10.10;;
83199;SDS011;73092;49.132;8.920;2024-01-07T00:43:31;25.17;;;11.43;;
83199;SDS011;73092;49.132;8.920;2024-01-07T00:45:56;25.02;;;10.82;;
83199;SDS011;73092;49.132;8.920;2024-01-07T00:48:21;25.73;;;12.70;;
83199;SDS011;73092;49.132;8.920;2024-01-07T00:50:47;25.10;;;11.33;;
83199;SDS011;73092;49.132;8.920;2024-01-07T00:53:12;24.40;;;11.90;;
83199;SDS011;73092;49.132;8.920;2024-01-07T00:55:37;29.80;;;12.83;;
83199;SDS011;73092;49.132;8.920;2024-01-07T00:58:03;29.63;;;12.47;;
83199;SDS011;73092;49.132;8.920;2024-01-07T01:00:28;28.20;;;12.40;;
83199;SDS011;73092;49.132;8.920;2024-01-07T01:02:54;26.88;;;13.43;;
83199;SDS011;73092;49.132;8.920;2024-01-07T01:05:26;29.25;;;13.05;;
83199;SDS011;73092;49.132;8.920;2024-01-07T01:07:51;25.90;;;12.37;;
83199;SDS011;73092;49.132;8.920;2024-01-07T01:10:17;30.70;;;12.93;;
83199;SDS011;73092;49.132;8.920;2024-01-07T01:12:43;29.08;;;13.32;;
83199;SDS011;73092;49.132;8.920;2024-01-07T01:15:09;28.92;;;13.15;;
83199;SDS011;73092;49.132;8.920;2024-01-07T01:17:35;29.70;;;12.52;;
83199;SDS011;73092;49.132;8.920;2024-01-07T01:20:07;29.38;;;13.35;;
83199;SDS011;73092;49.132;8.920;2024-01-07T01:22:36;31.40;;;13.40;;
83199;SDS011;73092;49.132;8.920;2024-01-07T01:25:01;28.43;;;14.53;;
83199;SDS011;73092;49.132;8.920;2024-01-07T01:29:56;33.50;;;14.50;;
83199;SDS011;73092;49.132;8.920;2024-01-07T01:32:21;28.17;;;12.97;;
83199;SDS011;73092;49.132;8.920;2024-01-07T01:34:46;32.20;;;13.53;;
83199;SDS011;73092;49.132;8.920;2024-01-07T01:37:12;29.43;;;14.53;;
83199;SDS011;73092;49.132;8.920;2024-01-07T01:39:39;34.10;;;16.27;;
83199;SDS011;73092;49.132;8.920;2024-01-07T01:42:06;31.17;;;13.80;;
83199;SDS011;73092;49.132;8.920;2024-01-07T01:44:38;30.92;;;14.35;;
83199;SDS011;73092;49.132;8.920;2024-01-07T01:47:05;28.15;;;12.30;;
83199;SDS011;73092;49.132;8.920;2024-01-07T01:49:32;31.90;;;14.57;;
83199;SDS011;73092;49.132;8.920;2024-01-07T01:51:57;34.40;;;15.32;;
83199;SDS011;73092;49.132;8.920;2024-01-07T01:54:22;35.37;;;15.10;;
83199;SDS011;73092;49.132;8.920;2024-01-07T01:56:48;36.60;;;15.18;;
83199;SDS011;73092;49.132;8.920;2024-01-07T01:59:14;37.03;;;15.88;;
83199;SDS011;73092;49.132;8.920;2024-01-07T02:01:40;31.83;;;13.18;;
83199;SDS011;73092;49.132;8.920;2024-01-07T02:04:06;34.10;;;15.95;;
83199;SDS011;73092;49.132;8.920;2024-01-07T02:06:38;39.67;;;15.23;;
83199;SDS011;73092;49.132;8.920;2024-01-07T02:09:09;37.03;;;14.85;;
83199;SDS011;73092;49.132;8.920;2024-01-07T02:11:36;35.42;;;16.13;;
83199;SDS011;73092;49.132;8.920;2024-01-07T02:14:01;37.90;;;15.73;;
83199;SDS011;73092;49.132;8.920;2024-01-07T02:16:26;30.20;;;14.47;;
83199;SDS011;73092;49.132;8.920;2024-01-07T02:18:52;37.80;;;13.30;;
83199;SDS011;73092;49.132;8.920;2024-01-07T02:21:18;39.45;;;16.88;;
83199;SDS011;73092;49.132;8.920;2024-01-07T02:23:44;42.63;;;15.57;;
83199;SDS011;73092;49.132;8.920;2024-01-07T02:26:11;39.80;;;15.88;;
83199;SDS011;73092;49.132;8.920;2024-01-07T02:28:38;45.60;;;17.13;;
83199;SDS011;73092;49.132;8.920;2024-01-07T02:31:03;36.10;;;15.98;;
83199;SDS011;73092;49.132;8.920;2024-01-07T02:33:28;34.08;;;15.77;;
83199;SDS011;73092;49.132;8.920;2024-01-07T02:35:56;33.08;;;15.25;;
83199;SDS011;73092;49.132;8.920;2024-01-07T02:38:22;38.42;;;16.23;;
83199;SDS011;73092;49.132;8.920;2024-01-07T02:40:47;40.97;;;15.40;;
83199;SDS011;73092;49.132;8.920;2024-01-07T02:43:12;37.50;;;14.67;;
83199;SDS011;73092;49.132;8.920;2024-01-07T02:45:38;35.13;;;14.33;;
83199;SDS011;73092;49.132;8.920;2024-01-07T02:48:03;38.90;;;15.50;;
83199;SDS011;73092;49.132;8.920;2024-01-07T02:50:29;33.00;;;15.20;;
83199;SDS011;73092;49.132;8.920;2024-01-07T02:52:56;32.95;;;15.10;;
83199;SDS011;73092;49.132;8.920;2024-01-07T02:55:21;36.17;;;16.47;;
83199;SDS011;73092;49.132;8.920;2024-01-07T02:57:46;36.97;;;15.47;;
83199;SDS011;73092;49.132;8.920;2024-01-07T03:00:13;36.65;;;16.05;;
83199;SDS011;73092;49.132;8.920;2024-01-07T03:02:38;37.50;;;15.25;;
83199;SDS011;73092;49.132;8.920;2024-01-07T03:05:04;39.50;;;13.87;;
83199;SDS011;73092;49.132;8.920;2024-01-07T03:07:29;38.00;;;16.25;;
83199;SDS011;73092;49.132;8.920;2024-01-07T03:09:56;32.58;;;14.63;;
83199;SDS011;73092;49.132;8.920;2024-01-07T03:12:21;40.60;;;14.00;;
83199;SDS011;73092;49.132;8.920;2024-01-07T03:14:46;40.93;;;14.93;;
83199;SDS011;73092;49.132;8.920;2024-01-07T03:17:12;42.00;;;15.65;;
83199;SDS011;73092;49.132;8.920;2024-01-07T03:19:40;36.28;;;14.50;;
83199;SDS011;73092;49.132;8.920;2024-01-07T03:22:06;35.87;;;15.00;;
83199;SDS011;73092;49.132;8.920;2024-01-07T03:24:32;37.70;;;15.27;;
83199;SDS011;73092;49.132;8.920;2024-01-07T03:26:57;35.80;;;14.95;;
83199;SDS011;73092;49.132;8.920;2024-01-07T03:29:23;33.03;;;13.80;;
83199;SDS011;73092;49.132;8.920;2024-01-07T03:31:48;37.50;;;16.27;;
83199;SDS011;73092;49.132;8.920;2024-01-07T03:34:13;36.73;;;15.13;;
83199;SDS011;73092;49.132;8.920;2024-01-07T03:36:39;35.27;;;13.93;;
83199;SDS011;73092;49.132;8.920;2024-01-07T03:39:04;31.83;;;14.47;;
83199;SDS011;73092;49.132;8.920;2024-01-07T03:41:29;34.67;;;14.67;;
83199;SDS011;73092;49.132;8.920;2024-01-07T03:43:55;38.50;;;15.70;;
83199;SDS011;73092;49.132;8.920;2024-01-07T03:46:21;40.58;;;15.60;;
83199;SDS011;73092;49.132;8.920;2024-01-07T03:48:47;36.17;;;15.32;;
83199;SDS011;73092;49.132;8.920;2024-01-07T03:51:12;36.27;;;13.10;;
83199;SDS011;73092;49.132;8.920;2024-01-07T03:53:38;34.70;;;14.93;;
83199;SDS011;73092;49.132;8.920;2024-01-07T03:56:03;30.20;;;14.03;;
83199;SDS011;73092;49.132;8.920;2024-01-07T03:58:30;36.58;;;15.25;;
83199;SDS011;73092;49.132;8.920;2024-01-07T04:00:58;35.35;;;14.23;;
83199;SDS011;73092;49.132;8.920;2024-01-07T04:03:23;36.60;;;15.38;;
83199;SDS011;73092;49.132;8.920;2024-01-07T04:05:48;32.37;;;13.80;;
83199;SDS011;73092;49.132;8.920;2024-01-07T04:08:14;32.50;;;14.23;;
83199;SDS011;73092;49.132;8.920;2024-01-07T04:10:40;30.83;;;13.63;;
83199;SDS011;73092;49.132;8.920;2024-01-07T04:13:08;34.88;;;14.77;;
83199;SDS011;73092;49.132;8.920;2024-01-07T04:15:34;34.30;;;14.13;;
83199;SDS011;73092;49.132;8.920;2024-01-07T04:18:01;36.83;;;14.25;;
83199;SDS011;73092;49.132;8.920;2024-01-07T04:20:29;40.67;;;14.88;;
83199;SDS011;73092;49.132;8.920;2024-01-07T04:22:55;40.47;;;15.63;;
83199;SDS011;73092;49.132;8.920;2024-01-07T04:25:21;33.70;;;14.82;;
83199;SDS011;73092;49.132;8.920;2024-01-07T04:27:47;33.47;;;12.82;;
83199;SDS011;73092;49.132;8.920;2024-01-07T04:30:13;34.13;;;14.13;;
83199;SDS011;73092;49.132;8.920;2024-01-07T04:32:38;32.30;;;13.25;;
83199;SDS011;73092;49.132;8.920;2024-01-07T04:35:03;34.90;;;12.53;;
83199;SDS011;73092;49.132;8.920;2024-01-07T04:37:29;33.90;;;13.30;;
83199;SDS011;73092;49.132;8.920;2024-01-07T04:39:54;30.83;;;12.10;;
83199;SDS011;73092;49.132;8.920;2024-01-07T04:42:20;38.63;;;16.13;;
83199;SDS011;73092;49.132;8.920;2024-01-07T04:44:46;33.67;;;13.00;;
83199;SDS011;73092;49.132;8.920;2024-01-07T04:47:27;34.23;;;14.43;;
83199;SDS011;73092;49.132;8.920;2024-01-07T04:49:54;23.77;;;11.75;;
83199;SDS011;73092;49.132;8.920;2024-01-07T04:52:21;27.58;;;12.63;;
83199;SDS011;73092;49.132;8.920;2024-01-07T04:54:52;32.67;;;12.70;;
83199;SDS011;73092;49.132;8.920;2024-01-07T04:57:18;32.95;;;13.27;;
83199;SDS011;73092;49.132;8.920;2024-01-07T04:59:44;27.88;;;12.98;;
83199;SDS011;73092;49.132;8.920;2024-01-07T05:02:10;28.80;;;12.73;;
83199;SDS011;73092;49.132;8.920;2024-01-07T05:04:36;31.23;;;12.20;;
83199;SDS011;73092;49.132;8.920;2024-01-07T05:07:03;24.25;;;11.85;;
83199;SDS011;73092;49.132;8.920;2024-01-07T05:11:57;26.92;;;11.00;;
83199;SDS011;73092;49.132;8.920;2024-01-07T05:14:26;30.20;;;11.73;;
83199;SDS011;73092;49.132;8.920;2024-01-07T05:16:53;33.50;;;14.70;;
83199;SDS011;73092;49.132;8.920;2024-01-07T05:19:21;35.10;;;13.00;;
83199;SDS011;73092;49.132;8.920;2024-01-07T05:21:46;31.02;;;13.75;;
83199;SDS011;73092;49.132;8.920;2024-01-07T05:24:13;25.10;;;11.55;;
83199;SDS011;73092;49.132;8.920;2024-01-07T05:26:39;28.57;;;13.13;;
83199;SDS011;73092;49.132;8.920;2024-01-07T05:29:06;29.58;;;11.20;;
83199;SDS011;73092;49.132;8.920;2024-01-07T05:31:31;28.73;;;12.50;;
83199;SDS011;73092;49.132;8.920;2024-01-07T05:33:57;31.63;;;11.52;;
83199;SDS011;73092;49.132;8.920;2024-01-07T05:36:22;26.50;;;10.97;;
83199;SDS011;73092;49.132;8.920;2024-01-07T05:38:47;26.90;;;11.18;;
83199;SDS011;73092;49.132;8.920;2024-01-07T05:41:13;20.73;;;9.60;;
83199;SDS011;73092;49.132;8.920;2024-01-07T05:43:38;21.40;;;9.90;;
83199;SDS011;73092;49.132;8.920;2024-01-07T05:46:03;25.47;;;10.67;;
83199;SDS011;73092;49.132;8.920;2024-01-07T05:48:29;24.23;;;9.67;;
83199;SDS011;73092;49.132;8.920;2024-01-07T05:50:54;23.80;;;11.93;;
83199;SDS011;73092;49.132;8.920;2024-01-07T05:53:19;20.27;;;9.07;;
83199;SDS011;73092;49.132;8.920;2024-01-07T05:55:45;25.37;;;10.13;;
83199;SDS011;73092;49.132;8.920;2024-01-07T05:58:11;31.33;;;10.43;;
83199;SDS011;73092;49.132;8.920;2024-01-07T06:00:37;21.30;;;10.48;;
83199;SDS011;73092;49.132;8.920;2024-01-07T06:03:03;25.17;;;10.80;;
83199;SDS011;73092;49.132;8.920;2024-01-07T06:05:29;24.15;;;11.05;;
83199;SDS011;73092;49.132;8.920;2024-01-07T06:07:54;20.58;;;10.55;;
83199;SDS011;73092;49.132;8.920;2024-01-07T06:10:20;22.70;;;10.40;;
83199;SDS011;73092;49.132;8.920;2024-01-07T06:12:46;22.17;;;10.27;;
83199;SDS011;73092;49.132;8.920;2024-01-07T06:15:11;21.13;;;9.95;;
83199;SDS011;73092;49.132;8.920;2024-01-07T06:17:36;22.17;;;9.00;;
83199;SDS011;73092;49.132;8.920;2024-01-07T06:20:02;22.87;;;10.97;;
83199;SDS011;73092;49.132;8.920;2024-01-07T06:22:27;23.38;;;10.10;;
83199;SDS011;73092;49.132;8.920;2024-01-07T06:24:53;20.83;;;9.23;;
83199;SDS011;73092;49.132;8.920;2024-01-07T06:27:18;23.83;;;10.87;;
83199;SDS011;73092;49.132;8.920;2024-01-07T06:29:44;23.67;;;10.87;;
83199;SDS011;73092;49.132;8.920;2024-01-07T06:32:09;23.40;;;9.85;;
83199;SDS011;73092;49.132;8.920;2024-01-07T06:34:35;26.20;;;11.20;;
83199;SDS011;73092;49.132;8.920;2024-01-07T06:37:00;17.45;;;9.82;;
83199;SDS011;73092;49.132;8.920;2024-01-07T06:39:26;23.70;;;9.80;;
83199;SDS011;73092;49.132;8.920;2024-01-07T06:41:54;18.40;;;8.95;;
83199;SDS011;73092;49.132;8.920;2024-01-07T06:44:20;20.88;;;9.57;;
83199;SDS011;73092;49.132;8.920;2024-01-07T06:46:46;20.92;;;10.00;;
83199;SDS011;73092;49.132;8.920;2024-01-07T06:49:11;23.67;;;10.50;;
83199;SDS011;73092;49.132;8.920;2024-01-07T06:51:37;20.85;;;10.07;;
83199;SDS011;73092;49.132;8.920;2024-01-07T06:54:03;17.08;;;8.77;;
83199;SDS011;73092;49.132;8.920;2024-01-07T06:56:29;22.35;;;12.00;;
83199;SDS011;73092;49.132;8.920;2024-01-07T06:58:54;23.45;;;10.20;;
83199;SDS011;73092;49.132;8.920;2024-01-07T07:01:20;24.40;;;10.83;;
83199;SDS011;73092;49.132;8.920;2024-01-07T07:03:49;24.40;;;11.13;;
83199;SDS011;73092;49.132;8.920;2024-01-07T07:06:15;25.90;;;11.15;;
83199;SDS011;73092;49.132;8.920;2024-01-07T07:08:41;22.67;;;10.98;;
83199;SDS011;73092;49.132;8.920;2024-01-07T07:11:07;27.30;;;10.82;;
83199;SDS011;73092;49.132;8.920;2024-01-07T07:13:32;22.17;;;11.45;;
83199;SDS011;73092;49.132;8.920;2024-01-07T07:15:58;23.80;;;11.35;;
83199;SDS011;73092;49.132;8.920;2024-01-07T07:18:25;25.95;;;10.85;;
83199;SDS011;73092;49.132;8.920;2024-01-07T07:20:56;21.23;;;9.75;;
83199;SDS011;73092;49.132;8.920;2024-01-07T07:23:21;31.37;;;12.83;;
83199;SDS011;73092;49.132;8.920;2024-01-07T07:25:46;27.53;;;13.17;;
83199;SDS011;73092;49.132;8.920;2024-01-07T07:28:12;16.47;;;10.27;;
83199;SDS011;73092;49.132;8.920;2024-01-07T07:30:37;17.70;;;10.18;;
83199;SDS011;73092;49.132;8.920;2024-01-07T07:33:03;17.07;;;9.47;;
83199;SDS011;73092;49.132;8.920;2024-01-07T07:35:28;15.63;;;9.13;;
83199;SDS011;73092;49.132;8.920;2024-01-07T07:37:54;20.30;;;9.27;;
83199;SDS011;73092;49.132;8.920;2024-01-07T07:40:20;19.00;;;9.48;;
83199;SDS011;73092;49.132;8.920;2024-01-07T07:42:45;17.90;;;9.70;;
83199;SDS011;73092;49.132;8.920;2024-01-07T07:45:10;17.17;;;8.53;;
83199;SDS011;73092;49.132;8.920;2024-01-07T07:47:36;18.48;;;9.90;;
83199;SDS011;73092;49.132;8.920;2024-01-07T07:50:04;17.05;;;9.35;;
83199;SDS011;73092;49.132;8.920;2024-01-07T07:52:30;15.00;;;9.32;;
83199;SDS011;73092;49.132;8.920;2024-01-07T07:54:55;17.63;;;9.57;;
83199;SDS011;73092;49.132;8.920;2024-01-07T07:57:21;14.40;;;8.23;;
83199;SDS011;73092;49.132;8.920;2024-01-07T07:59:49;16.67;;;9.35;;
83199;SDS011;73092;49.132;8.920;2024-01-07T08:02:14;17.08;;;9.50;;
83199;SDS011;73092;49.132;8.920;2024-01-07T08:04:40;17.80;;;8.90;;
83199;SDS011;73092;49.132;8.920;2024-01-07T08:07:08;17.20;;;9.38;;
83199;SDS011;73092;49.132;8.920;2024-01-07T08:09:34;19.10;;;9.30;;
83199;SDS011;73092;49.132;8.920;2024-01-07T08:12:02;19.70;;;9.95;;
83199;SDS011;73092;49.132;8.920;2024-01-07T08:14:27;18.05;;;10.50;;
83199;SDS011;73092;49.132;8.920;2024-01-07T08:16:54;16.35;;;8.68;;
83199;SDS011;73092;49.132;8.920;2024-01-07T08:19:19;15.25;;;8.60;;
83199;SDS011;73092;49.132;8.920;2024-01-07T08:21:45;17.35;;;9.18;;
83199;SDS011;73092;49.132;8.920;2024-01-07T08:24:11;23.27;;;10.55;;
83199;SDS011;73092;49.132;8.920;2024-01-07T08:26:36;16.50;;;9.05;;
83199;SDS011;73092;49.132;8.920;2024-01-07T08:29:02;13.25;;;8.57;;
83199;SDS011;73092;49.132;8.920;2024-01-07T08:31:27;16.13;;;8.50;;
83199;SDS011;73092;49.132;8.920;2024-01-07T08:33:52;15.57;;;9.43;;
83199;SDS011;73092;49.132;8.920;2024-01-07T08:36:18;14.25;;;8.05;;
83199;SDS011;73092;49.132;8.920;2024-01-07T08:38:45;15.05;;;8.45;;
83199;SDS011;73092;49.132;8.920;2024-01-07T08:41:11;13.77;;;7.82;;
83199;SDS011;73092;49.132;8.920;2024-01-07T08:43:37;12.98;;;7.18;;
83199;SDS011;73092;49.132;8.920;2024-01-07T08:46:04;13.98;;;7.22;;
83199;SDS011;73092;49.132;8.920;2024-01-07T08:48:32;15.75;;;7.70;;
83199;SDS011;73092;49.132;8.920;2024-01-07T08:50:59;16.65;;;9.20;;
83199;SDS011;73092;49.132;8.920;2024-01-07T08:53:24;11.67;;;6.60;;
83199;SDS011;73092;49.132;8.920;2024-01-07T08:55:49;16.53;;;7.17;;
83199;SDS011;73092;49.132;8.920;2024-01-07T08:58:15;14.97;;;6.93;;
83199;SDS011;73092;49.132;8.920;2024-01-07T09:00:43;15.32;;;7.00;;
83199;SDS011;73092;49.132;8.920;2024-01-07T09:03:16;12.23;;;6.65;;
83199;SDS011;73092;49.132;8.920;2024-01-07T09:05:43;11.23;;;6.75;;
83199;SDS011;73092;49.132;8.920;2024-01-07T09:08:08;10.73;;;6.63;;
83199;SDS011;73092;49.132;8.920;2024-01-07T09:10:36;15.10;;;6.90;;
83199;SDS011;73092;49.132;8.920;2024-01-07T09:13:02;15.32;;;8.00;;
83199;SDS011;73092;49.132;8.920;2024-01-07T09:15:31;11.00;;;7.15;;
83199;SDS011;73092;49.132;8.920;2024-01-07T09:17:57;14.65;;;7.32;;
83199;SDS011;73092;49.132;8.920;2024-01-07T09:20:23;10.37;;;6.10;;
83199;SDS011;73092;49.132;8.920;2024-01-07T09:22:48;11.23;;;5.70;;
83199;SDS011;73092;49.132;8.920;2024-01-07T09:25:14;9.43;;;5.53;;
83199;SDS011;73092;49.132;8.920;2024-01-07T09:27:39;10.77;;;6.93;;
83199;SDS011;73092;49.132;8.920;2024-01-07T09:30:04;13.50;;;6.77;;
83199;SDS011;73092;49.132;8.920;2024-01-07T09:32:30;9.18;;;5.15;;
83199;SDS011;73092;49.132;8.920;2024-01-07T09:34:56;8.48;;;4.65;;
83199;SDS011;73092;49.132;8.920;2024-01-07T09:37:22;14.35;;;6.63;;
83199;SDS011;73092;49.132;8.920;2024-01-07T09:39:48;12.65;;;6.32;;
83199;SDS011;73092;49.132;8.920;2024-01-07T09:42:19;8.70;;;5.82;;
83199;SDS011;73092;49.132;8.920;2024-01-07T09:47:10;8.88;;;5.13;;
83199;SDS011;73092;49.132;8.920;2024-01-07T09:49:38;20.13;;;10.18;;
83199;SDS011;73092;49.132;8.920;2024-01-07T09:52:04;11.60;;;6.38;;
83199;SDS011;73092;49.132;8.920;2024-01-07T09:54:30;10.75;;;6.43;;
83199;SDS011;73092;49.132;8.920;2024-01-07T09:57:01;11.77;;;5.72;;
83199;SDS011;73092;49.132;8.920;2024-01-07T09:59:28;10.45;;;5.72;;
83199;SDS011;73092;49.132;8.920;2024-01-07T10:01:54;12.63;;;6.43;;
83199;SDS011;73092;49.132;8.920;2024-01-07T10:04:20;10.68;;;6.68;;
83199;SDS011;73092;49.132;8.920;2024-01-07T10:06:46;15.10;;;6.72;;
83199;SDS011;73092;49.132;8.920;2024-01-07T10:09:14;10.80;;;6.82;;
83199;SDS011;73092;49.132;8.920;2024-01-07T10:11:40;11.77;;;6.35;;
83199;SDS011;73092;49.132;8.920;2024-01-07T10:14:05;13.70;;;5.88;;
83199;SDS011;73092;49.132;8.920;2024-01-07T10:16:31;13.75;;;7.80;;
83199;SDS011;73092;49.132;8.920;2024-01-07T10:18:58;12.38;;;6.35;;
83199;SDS011;73092;49.132;8.920;2024-01-07T10:21:23;12.95;;;7.13;;
83199;SDS011;73092;49.132;8.920;2024-01-07T10:24:10;13.63;;;6.65;;
83199;SDS011;73092;49.132;8.920;2024-01-07T10:26:42;10.15;;;5.90;;
83199;SDS011;73092;49.132;8.920;2024-01-07T10:29:09;10.65;;;6.50;;
83199;SDS011;73092;49.132;8.920;2024-01-07T10:31:34;10.52;;;5.65;;
83199;SDS011;73092;49.132;8.920;2024-01-07T10:34:08;8.35;;;5.28;;
83199;SDS011;73092;49.132;8.920;2024-01-07T10:36:35;7.43;;;4.68;;
83199;SDS011;73092;49.132;8.920;2024-01-07T10:39:02;8.65;;;5.82;;
83199;SDS011;73092;49.132;8.920;2024-01-07T10:41:27;9.82;;;5.85;;
83199;SDS011;73092;49.132;8.920;2024-01-07T10:43:55;8.15;;;5.75;;
83199;SDS011;73092;49.132;8.920;2024-01-07T10:46:20;9.02;;;4.82;;
83199;SDS011;73092;49.132;8.920;2024-01-07T10:48:51;8.77;;;4.90;;
83199;SDS011;73092;49.132;8.920;2024-01-07T10:51:20;8.25;;;5.00;;
83199;SDS011;73092;49.132;8.920;2024-01-07T10:53:51;10.93;;;6.13;;
83199;SDS011;73092;49.132;8.920;2024-01-07T10:56:23;7.82;;;4.95;;
83199;SDS011;73092;49.132;8.920;2024-01-07T10:58:51;8.82;;;5.20;;
83199;SDS011;73092;49.132;8.920;2024-01-07T11:01:22;10.23;;;6.18;;
83199;SDS011;73092;49.132;8.920;2024-01-07T11:03:54;9.35;;;5.65;;
83199;SDS011;73092;49.132;8.920;2024-01-07T11:09:34;10.32;;;6.13;;
83199;SDS011;73092;49.132;8.920;2024-01-07T11:12:00;12.88;;;7.07;;
83199;SDS011;73092;49.132;8.920;2024-01-07T11:20:01;12.18;;;6.97;;
83199;SDS011;73092;49.132;8.920;2024-01-07T11:22:30;13.25;;;6.22;;
83199;SDS011;73092;49.132;8.920;2024-01-07T11:25:00;10.43;;;6.47;;
83199;SDS011;73092;49.132;8.920;2024-01-07T11:27:31;12.52;;;6.07;;
83199;SDS011;73092;49.132;8.920;2024-01-07T11:29:57;10.82;;;7.15;;
83199;SDS011;73092;49.132;8.920;2024-01-07T11:32:30;11.85;;;6.20;;
83199;SDS011;73092;49.132;8.920;2024-01-07T11:34:55;8.90;;;4.78;;
83199;SDS011;73092;49.132;8.920;2024-01-07T11:37:23;10.68;;;6.57;;
83199;SDS011;73092;49.132;8.920;2024-01-07T11:39:51;10.37;;;6.43;;
83199;SDS011;73092;49.132;8.920;2024-01-07T11:42:20;12.38;;;6.75;;
83199;SDS011;73092;49.132;8.920;2024-01-07T11:44:47;12.35;;;7.38;;
83199;SDS011;73092;49.132;8.920;2024-01-07T11:47:22;9.73;;;6.88;;
83199;SDS011;73092;49.132;8.920;2024-01-07T11:49:48;12.23;;;6.43;;
83199;SDS011;73092;49.132;8.920;2024-01-07T11:52:18;13.48;;;7.90;;
83199;SDS011;73092;49.132;8.920;2024-01-07T11:54:44;14.98;;;8.40;;
83199;SDS011;73092;49.132;8.920;2024-01-07T11:57:11;11.23;;;6.85;;
83199;SDS011;73092;49.132;8.920;2024-01-07T11:59:41;11.38;;;7.25;;
83199;SDS011;73092;49.132;8.920;2024-01-07T12:02:07;11.23;;;7.00;;
83199;SDS011;73092;49.132;8.920;2024-01-07T12:04:32;11.13;;;6.90;;
83199;SDS011;73092;49.132;8.920;2024-01-07T12:06:59;13.73;;;7.95;;
83199;SDS011;73092;49.132;8.920;2024-01-07T12:09:26;19.60;;;10.68;;
83199;SDS011;73092;49.132;8.920;2024-01-07T12:11:52;12.80;;;8.02;;
83199;SDS011;73092;49.132;8.920;2024-01-07T12:14:19;20.13;;;10.02;;
83199;SDS011;73092;49.132;8.920;2024-01-07T12:16:51;24.25;;;11.30;;
83199;SDS011;73092;49.132;8.920;2024-01-07T12:19:16;30.83;;;11.40;;
83199;SDS011;73092;49.132;8.920;2024-01-07T12:22:00;11.55;;;7.35;;
83199;SDS011;73092;49.132;8.920;2024-01-07T12:24:27;13.07;;;6.55;;
83199;SDS011;73092;49.132;8.920;2024-01-07T12:26:54;15.63;;;8.27;;
83199;SDS011;73092;49.132;8.920;2024-01-07T12:29:19;12.90;;;7.57;;
83199;SDS011;73092;49.132;8.920;2024-01-07T12:31:47;16.73;;;7.05;;
83199;SDS011;73092;49.132;8.920;2024-01-07T12:34:16;14.55;;;7.85;;
83199;SDS011;73092;49.132;8.920;2024-01-07T12:36:43;14.00;;;7.85;;
83199;SDS011;73092;49.132;8.920;2024-01-07T12:39:11;14.65;;;8.05;;
83199;SDS011;73092;49.132;8.920;2024-01-07T12:41:43;14.90;;;8.75;;
83199;SDS011;73092;49.132;8.920;2024-01-07T12:44:08;16.33;;;9.88;;
83199;SDS011;73092;49.132;8.920;2024-01-07T12:46:35;12.90;;;7.68;;
83199;SDS011;73092;49.132;8.920;2024-01-07T12:49:01;15.10;;;7.03;;
83199;SDS011;73092;49.132;8.920;2024-01-07T12:51:26;14.07;;;8.30;;
83199;SDS011;73092;49.132;8.920;2024-01-07T12:53:51;11.20;;;6.95;;
83199;SDS011;73092;49.132;8.920;2024-01-07T12:56:17;17.33;;;8.57;;
83199;SDS011;73092;49.132;8.920;2024-01-07T12:58:43;12.25;;;7.28;;
83199;SDS011;73092;49.132;8.920;2024-01-07T13:01:10;13.23;;;8.30;;
83199;SDS011;73092;49.132;8.920;2024-01-07T13:03:35;15.75;;;7.50;;
83199;SDS011;73092;49.132;8.920;2024-01-07T13:06:01;14.40;;;8.57;;
83199;SDS011;73092;49.132;8.920;2024-01-07T13:08:28;13.70;;;8.48;;
83199;SDS011;73092;49.132;8.920;2024-01-07T13:10:54;11.82;;;7.13;;
83199;SDS011;73092;49.132;8.920;2024-01-07T13:13:20;20.67;;;9.52;;
83199;SDS011;73092;49.132;8.920;2024-01-07T13:15:45;13.82;;;7.00;;
83199;SDS011;73092;49.132;8.920;2024-01-07T13:18:11;13.48;;;6.75;;
83199;SDS011;73092;49.132;8.920;2024-01-07T13:20:40;13.55;;;7.40;;
83199;SDS011;73092;49.132;8.920;2024-01-07T13:23:05;14.23;;;8.10;;
83199;SDS011;73092;49.132;8.920;2024-01-07T13:25:31;20.67;;;10.45;;
83199;SDS011;73092;49.132;8.920;2024-01-07T13:27:56;22.05;;;9.95;;
83199;SDS011;73092;49.132;8.920;2024-01-07T13:30:22;14.82;;;8.07;;
83199;SDS011;73092;49.132;8.920;2024-01-07T13:32:49;14.50;;;8.47;;
83199;SDS011;73092;49.132;8.920;2024-01-07T13:35:16;14.43;;;8.43;;
83199;SDS011;73092;49.132;8.920;2024-01-07T13:37:42;18.17;;;9.00;;
83199;SDS011;73092;49.132;8.920;2024-01-07T13:40:08;11.43;;;7.30;;
83199;SDS011;73092;49.132;8.920;2024-01-07T13:42:35;16.75;;;8.02;;
83199;SDS011;73092;49.132;8.920;2024-01-07T13:45:01;14.43;;;8.68;;
83199;SDS011;73092;49.132;8.920;2024-01-07T13:47:27;13.48;;;8.25;;
83199;SDS011;73092;49.132;8.920;2024-01-07T13:49:53;15.30;;;7.10;;
83199;SDS011;73092;49.132;8.920;2024-01-07T13:52:18;13.30;;;7.50;;
83199;SDS011;73092;49.132;8.920;2024-01-07T13:54:44;19.20;;;9.20;;
83199;SDS011;73092;49.132;8.920;2024-01-07T13:57:10;19.50;;;11.77;;
83199;SDS011;73092;49.132;8.920;2024-01-07T13:59:35;17.55;;;9.38;;
83199;SDS011;73092;49.132;8.920;2024-01-07T14:02:01;18.57;;;9.60;;
83199;SDS011;73092;49.132;8.920;2024-01-07T14:04:27;13.45;;;8.10;;
83199;SDS011;73092;49.132;8.920;2024-01-07T14:06:55;15.07;;;8.50;;
83199;SDS011;73092;49.132;8.920;2024-01-07T14:09:23;17.90;;;9.60;;
83199;SDS011;73092;49.132;8.920;2024-01-07T14:11:49;19.40;;;10.27;;
83199;SDS011;73092;49.132;8.920;2024-01-07T14:14:15;15.43;;;9.15;;
83199;SDS011;73092;49.132;8.920;2024-01-07T14:16:41;19.30;;;10.23;;
83199;SDS011;73092;49.132;8.920;2024-01-07T14:19:06;15.85;;;9.02;;
83199;SDS011;73092;49.132;8.920;2024-01-07T14:21:32;16.00;;;9.00;;
83199;SDS011;73092;49.132;8.920;2024-01-07T14:23:57;13.95;;;7.30;;
83199;SDS011;73092;49.132;8.920;2024-01-07T14:26:23;14.07;;;8.18;;
83199;SDS011;73092;49.132;8.920;2024-01-07T14:28:53;15.93;;;9.02;;
83199;SDS011;73092;49.132;8.920;2024-01-07T14:31:18;13.15;;;8.15;;
83199;SDS011;73092;49.132;8.920;2024-01-07T14:33:44;12.13;;;7.10;;
83199;SDS011;73092;49.132;8.920;2024-01-07T14:36:09;15.50;;;8.50;;
83199;SDS011;73092;49.132;8.920;2024-01-07T14:38:44;14.88;;;7.95;;
83199;SDS011;73092;49.132;8.920;2024-01-07T14:41:13;15.10;;;7.28;;